createdAt,value
2022-10-17T00:01:06.470Z,101397.97
2022-10-17T00:03:37.446Z,101413.59
2022-10-17T00:06:14.329Z,101411.75
2022-10-17T00:08:44.044Z,101417.66
2022-10-17T00:11:24.162Z,101405.25
2022-10-17T00:13:56.096Z,101413.84
2022-10-17T00:16:37.394Z,101414.66
2022-10-17T00:19:07.546Z,101410.25
2022-10-17T00:21:35.055Z,101413.66
2022-10-17T00:24:02.770Z,101409.22
2022-10-17T00:26:30.024Z,101403.13
2022-10-17T00:28:57.538Z,101404.03
2022-10-17T00:31:25.476Z,101404.88
2022-10-17T00:33:53.454Z,101394.34
2022-10-17T00:36:27.973Z,101400.56
2022-10-17T00:38:59.740Z,101397.94
2022-10-17T00:41:33.680Z,101395.28
2022-10-17T00:44:30.590Z,101390.94
2022-10-17T00:47:03.763Z,101386.53
2022-10-17T00:49:36.698Z,101381.16
2022-10-17T00:52:30.747Z,101394.16
2022-10-17T00:55:36.884Z,101389.16
2022-10-17T00:58:06.739Z,101389.25
2022-10-17T01:00:34.325Z,101394.69
2022-10-17T01:03:01.697Z,101388.41
2022-10-17T01:05:30.134Z,101385.69
2022-10-17T01:07:57.761Z,101392.94
2022-10-17T01:10:40.626Z,101384.34
2022-10-17T01:13:42.522Z,101379.06
2022-10-17T01:17:06.102Z,101366.88
2022-10-17T01:20:12.649Z,101363.25
2022-10-17T01:23:21.101Z,101373.81
2022-10-17T01:26:37.457Z,101370.34
2022-10-17T01:30:16.622Z,101380.88
2022-10-17T01:33:12.825Z,101378.41
2022-10-17T01:36:46.519Z,101384.53
2022-10-17T01:39:43.911Z,101377.50
2022-10-17T01:42:37.695Z,101369.69
2022-10-17T01:45:40.584Z,101366.59
2022-10-17T01:48:18.745Z,101351.63
2022-10-17T01:51:06.480Z,101358.69
2022-10-17T01:53:55.366Z,101356.78
2022-10-17T01:56:28.434Z,101368.94
2022-10-17T01:59:13.096Z,101353.22
2022-10-17T02:01:44.980Z,101356.59
2022-10-17T02:04:12.512Z,101361.78
2022-10-17T02:06:39.770Z,101358.22
2022-10-17T02:09:27.274Z,101354.63
2022-10-17T02:12:23.670Z,101363.31
2022-10-17T02:15:16.958Z,101366.69
2022-10-17T02:18:20.390Z,101352.56
2022-10-17T02:20:54.878Z,101349.84
2022-10-17T02:24:01.205Z,101359.44
2022-10-17T02:26:55.452Z,101358.41
2022-10-17T02:29:38.420Z,101354.84
2022-10-17T02:32:31.336Z,101346.94
2022-10-17T02:35:03.810Z,101360.94
2022-10-17T02:37:33.758Z,101353.03
2022-10-17T02:40:04.546Z,101351.16
2022-10-17T02:42:33.818Z,101347.69
2022-10-17T02:45:03.445Z,101355.59
2022-10-17T02:47:50.871Z,101344.38
2022-10-17T02:50:26.576Z,101352.94
2022-10-17T02:53:08.558Z,101348.69
2022-10-17T02:55:58.482Z,101347.78
2022-10-17T02:58:33.807Z,101355.59
2022-10-17T03:01:02.095Z,101350.31
2022-10-17T03:03:32.809Z,101353.78
2022-10-17T03:06:02.276Z,101344.19
2022-10-17T03:08:29.597Z,101355.50
2022-10-17T03:10:57.286Z,101352.03
2022-10-17T03:13:26.416Z,101346.66
2022-10-17T03:15:53.577Z,101355.31
2022-10-17T03:18:20.751Z,101344.66
2022-10-17T03:20:49.793Z,101353.41
2022-10-17T03:23:17.141Z,101349.00
2022-10-17T03:25:45.493Z,101355.94
2022-10-17T03:28:14.584Z,101344.47
2022-10-17T03:30:41.830Z,101353.22
2022-10-17T03:33:09.317Z,101342.59
2022-10-17T03:35:40.496Z,101351.34
2022-10-17T03:38:08.471Z,101360.84
2022-10-17T03:40:35.723Z,101348.44
2022-10-17T03:43:04.754Z,101357.09
2022-10-17T03:45:32.841Z,101354.34
2022-10-17T03:48:00.477Z,101351.63
2022-10-17T03:50:27.803Z,101348.91
2022-10-17T03:52:56.084Z,101349.63
2022-10-17T03:55:24.394Z,101353.09
2022-10-17T03:57:51.704Z,101347.75
2022-10-17T04:00:21.151Z,101336.25
2022-10-17T04:02:55.079Z,101334.47
2022-10-17T04:05:22.241Z,101347.66
2022-10-17T04:07:49.605Z,101340.59
2022-10-17T04:10:19.480Z,101350.19
2022-10-17T04:12:50.288Z,101344.91
2022-10-17T04:15:18.601Z,101357.16
2022-10-17T04:17:48.495Z,101351.78
2022-10-17T04:20:17.062Z,101358.78
2022-10-17T04:22:44.564Z,101356.81
2022-10-17T04:25:13.019Z,101354.91
2022-10-17T04:27:43.663Z,101372.25
2022-10-17T04:30:11.568Z,101367.63
2022-10-17T04:32:39.396Z,101375.34
2022-10-17T04:35:24.554Z,101383.84
2022-10-17T04:38:01.875Z,101385.13
2022-10-17T04:40:29.419Z,101383.91
2022-10-17T04:42:57.027Z,101381.91
2022-10-17T04:45:31.886Z,101382.47
2022-10-17T04:48:03.224Z,101376.81
2022-10-17T04:50:30.421Z,101388.84
2022-10-17T04:53:34.456Z,101398.25
2022-10-17T04:56:07.181Z,101395.53
2022-10-17T04:58:34.460Z,101404.09
2022-10-17T05:01:10.263Z,101395.03
2022-10-17T05:03:39.389Z,101402.94
2022-10-17T05:06:15.745Z,101407.19
2022-10-17T05:08:48.221Z,101408.97
2022-10-17T05:11:28.976Z,101407.19
2022-10-17T05:14:02.548Z,101407.19
2022-10-17T05:16:31.911Z,101420.31
2022-10-17T05:18:59.996Z,101410.66
2022-10-17T05:24:00.592Z,101392.94
2022-10-17T05:26:29.144Z,101409.63
2022-10-17T05:28:56.828Z,101413.94
2022-10-17T05:31:25.832Z,101423.69
2022-10-17T05:33:53.090Z,101421.97
2022-10-17T05:36:22.792Z,101429.91
2022-10-17T05:38:52.077Z,101426.50
2022-10-17T05:41:21.215Z,101426.50
2022-10-17T05:43:50.261Z,101439.72
2022-10-17T05:46:21.842Z,101438.88
2022-10-17T05:48:49.089Z,101433.59
2022-10-17T05:51:17.089Z,101424.72
2022-10-17T05:53:44.415Z,101430.84
2022-10-17T05:56:17.256Z,101435.16
2022-10-17T05:58:50.323Z,101436.88
2022-10-17T06:01:39.217Z,101442.91
2022-10-17T06:04:06.412Z,101453.56
2022-10-17T06:06:36.018Z,101440.34
2022-10-17T06:09:04.758Z,101447.03
2022-10-17T06:11:37.245Z,101447.88
2022-10-17T06:14:05.941Z,101444.31
2022-10-17T06:16:33.217Z,101444.22
2022-10-17T06:19:00.416Z,101455.59
2022-10-17T06:21:28.762Z,101448.66
2022-10-17T06:24:06.290Z,101455.59
2022-10-17T06:26:36.406Z,101457.31
2022-10-17T06:29:06.313Z,101456.28
2022-10-17T06:31:37.560Z,101451.94
2022-10-17T06:34:04.732Z,101451.94
2022-10-17T06:36:31.990Z,101457.94
2022-10-17T06:38:59.733Z,101463.13
2022-10-17T06:41:59.274Z,101461.25
2022-10-17T06:44:44.189Z,101456.72
2022-10-17T06:47:23.354Z,101447.84
2022-10-17T06:49:53.041Z,101448.59
2022-10-17T06:52:39.631Z,101464.25
2022-10-17T06:55:26.268Z,101471.03
2022-10-17T06:58:13.999Z,101465.44
2022-10-17T07:00:45.328Z,101474.84
2022-10-17T07:03:13.475Z,101485.22
2022-10-17T07:05:41.057Z,101489.41
2022-10-17T07:08:08.757Z,101472.38
2022-10-17T07:10:38.737Z,101473.78
2022-10-17T07:13:07.901Z,101476.09
2022-10-17T07:15:38.037Z,101487.22
2022-10-17T07:18:06.645Z,101476.22
2022-10-17T07:20:34.337Z,101476.03
2022-10-17T07:23:02.101Z,101487.38
2022-10-17T07:25:30.245Z,101495.19
2022-10-17T07:28:02.172Z,101491.47
2022-10-17T07:30:29.639Z,101495.41
2022-10-17T07:33:04.647Z,101499.56
2022-10-17T07:35:32.082Z,101509.94
2022-10-17T07:37:59.343Z,101508.97
2022-10-17T07:40:27.357Z,101515.00
2022-10-17T07:42:56.368Z,101516.56
2022-10-17T07:45:27.620Z,101535.66
2022-10-17T07:47:58.442Z,101548.97
2022-10-17T07:50:26.143Z,101569.28
2022-10-17T07:52:53.479Z,101594.78
2022-10-17T07:55:20.932Z,101615.09
2022-10-17T07:57:50.714Z,101616.97
2022-10-17T08:00:18.774Z,101638.34
2022-10-17T08:02:46.002Z,101638.00
2022-10-17T08:05:13.279Z,101637.75
2022-10-17T08:07:41.668Z,101628.41
2022-10-17T08:10:12.412Z,101617.09
2022-10-17T08:12:39.876Z,101634.00
2022-10-17T08:15:10.092Z,101634.19
2022-10-17T08:17:39.324Z,101646.66
2022-10-17T08:20:07.925Z,101636.09
2022-10-17T08:22:35.477Z,101627.31
2022-10-17T08:25:02.704Z,101622.97
2022-10-17T08:27:34.649Z,101644.97
2022-10-17T08:30:02.266Z,101675.84
2022-10-17T08:32:30.440Z,101702.38
2022-10-17T08:34:57.888Z,101704.25
2022-10-17T08:37:25.261Z,101717.66
2022-10-17T08:39:55.298Z,101701.16
2022-10-17T08:42:53.607Z,101697.75
2022-10-17T08:45:44.659Z,101699.63
2022-10-17T08:48:22.820Z,101692.75
2022-10-17T08:51:09.544Z,101698.16
2022-10-17T08:54:02.293Z,101688.56
2022-10-17T08:56:49.036Z,101686.13
2022-10-17T08:59:30.077Z,101708.22
2022-10-17T09:02:41.581Z,101700.47
2022-10-17T09:05:50.525Z,101708.50
2022-10-17T09:08:46.897Z,101709.34
2022-10-17T09:12:20.114Z,101691.69
2022-10-17T09:15:17.837Z,101690.00
2022-10-17T09:18:21.109Z,101713.78
2022-10-17T09:21:19.602Z,101711.25
2022-10-17T09:24:09.075Z,101719.16
2022-10-17T09:26:40.920Z,101744.72
2022-10-17T09:29:32.403Z,101752.63
2022-10-17T09:32:19.445Z,101741.22
2022-10-17T09:34:46.673Z,101767.66
2022-10-17T09:37:20.393Z,101772.19
2022-10-17T09:39:48.010Z,101745.59
2022-10-17T09:42:23.894Z,101690.94
2022-10-17T09:45:14.176Z,101667.72
2022-10-17T09:48:01.013Z,101657.94
2022-10-17T09:50:34.919Z,101682.34
2022-10-17T09:53:24.337Z,101698.97
2022-10-17T09:56:01.260Z,101708.53
2022-10-17T09:58:54.484Z,101728.81
2022-10-17T10:01:30.914Z,101755.34
2022-10-17T10:04:20.306Z,101740.47
2022-10-17T10:07:12.349Z,101730.69
2022-10-17T10:09:40.359Z,101736.63
2022-10-17T10:12:31.498Z,101720.47
2022-10-17T10:14:59.940Z,101713.34
2022-10-17T10:17:34.737Z,101712.16
2022-10-17T10:20:25.537Z,101711.25
2022-10-17T10:23:13.943Z,101728.72
2022-10-17T10:26:32.118Z,101744.47
2022-10-17T10:29:06.600Z,101756.81
2022-10-17T10:31:40.329Z,101737.47
2022-10-17T10:34:31.318Z,101750.50
2022-10-17T10:37:20.235Z,101760.88
2022-10-17T10:40:25.429Z,101769.56
2022-10-17T10:43:04.017Z,101779.94
2022-10-17T10:45:53.597Z,101785.13
2022-10-17T10:49:02.090Z,101771.81
2022-10-17T10:51:42.413Z,101795.53
2022-10-17T10:54:28.766Z,101794.69
2022-10-17T10:57:07.306Z,101815.00
2022-10-17T11:00:04.948Z,101809.81
2022-10-17T11:03:12.829Z,101811.47
2022-10-17T11:06:11.265Z,101814.31
2022-10-17T11:09:21.787Z,101824.16
2022-10-17T11:12:35.226Z,101837.56
2022-10-17T11:15:41.086Z,101828.00
2022-10-17T11:18:23.377Z,101837.75
2022-10-17T11:21:24.239Z,101836.03
2022-10-17T11:24:14.353Z,101835.19
2022-10-17T11:27:05.840Z,101849.25
2022-10-17T11:29:38.943Z,101850.97
2022-10-17T11:32:44.586Z,101862.38
2022-10-17T11:35:38.127Z,101864.28
2022-10-17T11:39:03.769Z,101858.97
2022-10-17T11:41:44.076Z,101874.75
2022-10-17T11:44:39.912Z,101872.75
2022-10-17T11:47:31.275Z,101873.53
2022-10-17T11:53:26.474Z,101875.81
2022-10-17T11:55:58.293Z,101877.31
2022-10-17T11:58:53.432Z,101872.00
2022-10-17T12:01:58.481Z,101885.81
2022-10-17T12:04:49.693Z,101883.94
2022-10-17T12:08:18.024Z,101891.75
2022-10-17T12:11:14.995Z,101889.03
2022-10-17T12:13:56.365Z,101884.56
2022-10-17T12:16:23.659Z,101883.66
2022-10-17T12:19:10.922Z,101893.28
2022-10-17T12:22:04.830Z,101885.25
2022-10-17T12:24:51.311Z,101886.09
2022-10-17T12:27:45.942Z,101887.81
2022-10-17T12:30:13.553Z,101887.53
2022-10-17T12:33:21.856Z,101892.72
2022-10-17T12:36:11.923Z,101890.00
2022-10-17T12:38:40.372Z,101889.81
2022-10-17T12:41:07.661Z,101890.53
2022-10-17T12:43:48.555Z,101886.09
2022-10-17T12:46:51.875Z,101889.50
2022-10-17T12:49:40.454Z,101892.91
2022-10-17T12:52:35.077Z,101898.94
2022-10-17T12:55:13.150Z,101893.47
2022-10-17T12:58:03.177Z,101888.84
2022-10-17T13:00:37.677Z,101903.56
2022-10-17T13:03:26.130Z,101918.50
2022-10-17T13:06:00.389Z,101921.06
2022-10-17T13:08:43.038Z,101925.50
2022-10-17T13:11:13.643Z,101935.22
2022-10-17T13:13:54.109Z,101931.63
2022-10-17T13:17:00.152Z,101938.53
2022-10-17T13:19:45.546Z,101945.63
2022-10-17T13:22:33.040Z,101945.72
2022-10-17T13:25:19.231Z,101944.22
2022-10-17T13:27:48.904Z,101945.16
2022-10-17T13:30:49.281Z,101939.13
2022-10-17T13:33:35.797Z,101949.78
2022-10-17T13:36:13.593Z,101948.94
2022-10-17T13:38:42.656Z,101949.88
2022-10-17T13:41:34.728Z,101963.13
2022-10-17T13:44:32.098Z,101963.97
2022-10-17T13:46:59.782Z,101955.28
2022-10-17T13:49:43.045Z,101969.44
2022-10-17T13:52:25.418Z,101974.72
2022-10-17T13:54:54.239Z,101964.25
2022-10-17T13:57:31.407Z,101977.28
2022-10-17T14:00:23.053Z,101982.56
2022-10-17T14:02:50.317Z,101985.22
2022-10-17T14:05:23.225Z,101989.56
2022-10-17T14:08:12.428Z,101993.16
2022-10-17T14:10:44.352Z,101991.63
2022-10-17T14:13:35.963Z,101996.00
2022-10-17T14:16:04.602Z,102000.53
2022-10-17T14:18:37.017Z,102006.66
2022-10-17T14:24:19.833Z,102008.56
2022-10-17T14:26:58.812Z,102017.34
2022-10-17T14:29:49.957Z,102014.59
2022-10-17T14:32:19.945Z,102017.81
2022-10-17T14:35:01.434Z,102027.28
2022-10-17T14:37:51.831Z,102024.44
2022-10-17T14:40:27.366Z,102025.28
2022-10-17T14:42:58.156Z,102033.13
2022-10-17T14:45:33.202Z,102033.22
2022-10-17T14:48:25.275Z,102032.28
2022-10-17T14:51:17.841Z,102036.66
2022-10-17T14:54:27.020Z,102038.34
2022-10-17T14:56:55.715Z,102033.91
2022-10-17T14:59:52.290Z,102032.09
2022-10-17T15:02:13.539Z,102022.34
2022-10-17T15:04:41.879Z,102021.44
2022-10-17T15:07:16.920Z,102024.16
2022-10-17T15:09:49.833Z,102021.53
2022-10-17T15:12:22.616Z,102023.13
2022-10-17T15:14:51.621Z,102023.03
2022-10-17T15:17:27.203Z,102029.94
2022-10-17T15:19:55.191Z,102027.38
2022-10-17T15:22:23.847Z,102035.31
2022-10-17T15:24:51.080Z,102039.66
2022-10-17T15:27:27.753Z,102041.28
2022-10-17T15:29:55.042Z,102052.72
2022-10-17T15:32:22.275Z,102061.41
2022-10-17T15:34:49.491Z,102063.13
2022-10-17T15:37:23.508Z,102070.88
2022-10-17T15:39:55.221Z,102066.50
2022-10-17T15:42:31.548Z,102072.78
2022-10-17T15:44:59.209Z,102076.34
2022-10-17T15:47:33.994Z,102084.28
2022-10-17T15:50:02.442Z,102084.47
2022-10-17T15:52:29.781Z,102090.72
2022-10-17T15:54:59.592Z,102095.25
2022-10-17T15:57:36.222Z,102097.16
2022-10-17T16:00:07.688Z,102099.97
2022-10-17T16:02:36.610Z,102104.50
2022-10-17T16:05:23.479Z,102103.84
2022-10-17T16:07:51.594Z,102104.00
2022-10-17T16:10:22.358Z,102108.47
2022-10-17T16:12:50.398Z,102109.50
2022-10-17T16:15:27.972Z,102106.09
2022-10-17T16:18:00.472Z,102113.34
2022-10-17T16:20:30.373Z,102121.34
2022-10-17T16:23:00.537Z,102122.31
2022-10-17T16:25:30.931Z,102123.34
2022-10-17T16:28:00.685Z,102117.31
2022-10-17T16:30:31.812Z,102114.84
2022-10-17T16:32:59.391Z,102116.69
2022-10-17T16:35:33.402Z,102121.41
2022-10-17T16:38:06.923Z,102125.84
2022-10-17T16:40:37.768Z,102136.44
2022-10-17T16:43:05.252Z,102133.97
2022-10-17T16:45:32.640Z,102145.38
2022-10-17T16:48:01.084Z,102144.63
2022-10-17T16:50:31.212Z,102142.91
2022-10-17T16:52:59.104Z,102141.22
2022-10-17T16:55:26.366Z,102140.44
2022-10-17T16:57:53.583Z,102150.19
2022-10-17T17:00:21.013Z,102159.91
2022-10-17T17:02:49.311Z,102155.56
2022-10-17T17:05:16.604Z,102146.84
2022-10-17T17:07:43.948Z,102146.94
2022-10-17T17:10:11.163Z,102147.97
2022-10-17T17:12:38.419Z,102153.25
2022-10-17T17:15:06.611Z,102155.03
2022-10-17T17:17:55.222Z,102160.41
2022-10-17T17:20:22.775Z,102152.66
2022-10-17T17:22:51.912Z,102158.91
2022-10-17T17:25:19.201Z,102158.03
2022-10-17T17:27:49.114Z,102160.66
2022-10-17T17:30:16.752Z,102163.41
2022-10-17T17:32:44.011Z,102165.13
2022-10-17T17:35:11.334Z,102167.84
2022-10-17T17:37:38.552Z,102168.84
2022-10-17T17:40:06.981Z,102182.06
2022-10-17T17:42:34.164Z,102182.25
2022-10-17T17:45:01.336Z,102178.75
2022-10-17T17:47:31.753Z,102185.84
2022-10-17T17:49:59.299Z,102187.63
2022-10-17T17:52:26.673Z,102196.50
2022-10-17T17:54:54.184Z,102193.06
2022-10-17T17:57:22.098Z,102193.16
2022-10-17T17:59:50.123Z,102191.47
2022-10-17T18:02:17.438Z,102206.53
2022-10-17T18:04:44.717Z,102201.34
2022-10-17T18:07:11.971Z,102207.69
2022-10-17T18:09:39.244Z,102218.31
2022-10-17T18:12:06.490Z,102206.88
2022-10-17T18:14:33.668Z,102203.47
2022-10-17T18:17:00.839Z,102208.84
2022-10-17T18:19:29.072Z,102212.44
2022-10-17T18:21:56.239Z,102211.66
2022-10-17T18:24:23.581Z,102211.78
2022-10-17T18:26:52.199Z,102206.59
2022-10-17T18:29:19.764Z,102218.88
2022-10-17T18:31:47.144Z,102218.13
2022-10-17T18:34:14.334Z,102213.75
2022-10-17T18:36:41.587Z,102233.25
2022-10-17T18:39:08.832Z,102228.06
2022-10-17T18:41:36.243Z,102229.94
2022-10-17T18:44:04.029Z,102223.88
2022-10-17T18:46:40.628Z,102228.38
2022-10-17T18:49:15.662Z,102230.19
2022-10-17T18:51:43.353Z,102237.34
2022-10-17T18:54:21.560Z,102239.13
2022-10-17T18:56:55.254Z,102235.72
2022-10-17T18:59:23.613Z,102245.34
2022-10-17T19:01:50.910Z,102243.63
2022-10-17T19:04:20.489Z,102250.72
2022-10-17T19:06:47.979Z,102244.63
2022-10-17T19:09:19.199Z,102245.50
2022-10-17T19:11:46.693Z,102242.00
2022-10-17T19:14:14.494Z,102242.88
2022-10-17T19:16:49.260Z,102247.28
2022-10-17T19:19:25.415Z,102238.50
2022-10-17T19:21:53.637Z,102241.16
2022-10-17T19:24:25.717Z,102234.94
2022-10-17T19:26:59.282Z,102228.88
2022-10-17T19:29:33.452Z,102227.09
2022-10-17T19:32:02.523Z,102240.31
2022-10-17T19:34:29.866Z,102240.31
2022-10-17T19:36:57.197Z,102244.47
2022-10-17T19:39:26.471Z,102248.00
2022-10-17T19:41:53.728Z,102254.19
2022-10-17T19:44:22.470Z,102249.75
2022-10-17T19:46:49.806Z,102249.00
2022-10-17T19:49:17.685Z,102250.72
2022-10-17T19:51:45.329Z,102254.19
2022-10-17T19:54:12.832Z,102246.28
2022-10-17T19:56:41.287Z,102260.31
2022-10-17T19:59:13.575Z,102250.63
2022-10-17T20:01:41.196Z,102253.28
2022-10-17T20:04:10.922Z,102258.56
2022-10-17T20:06:40.679Z,102256.00
2022-10-17T20:09:13.887Z,102260.31
2022-10-17T20:11:44.685Z,102256.84
2022-10-17T20:14:12.016Z,102263.06
2022-10-17T20:16:39.235Z,102259.47
2022-10-17T20:19:12.974Z,102259.47
2022-10-17T20:21:40.631Z,102271.84
2022-10-17T20:24:13.392Z,102267.50
2022-10-17T20:26:41.785Z,102271.06
2022-10-17T20:29:20.764Z,102270.22
2022-10-17T20:31:49.001Z,102273.84
2022-10-17T20:34:19.618Z,102275.66
2022-10-17T20:36:50.750Z,102276.50
2022-10-17T20:39:21.066Z,102282.75
2022-10-17T20:41:49.355Z,102288.88
2022-10-17T20:44:16.630Z,102285.38
2022-10-17T20:47:00.597Z,102292.44
2022-10-17T20:49:30.203Z,102290.75
2022-10-17T20:51:59.169Z,102302.16
2022-10-17T20:54:28.505Z,102299.59
2022-10-17T20:56:58.634Z,102297.88
2022-10-17T20:59:28.417Z,102304.88
2022-10-17T21:01:55.831Z,102300.50
2022-10-17T21:07:10.373Z,102312.03
2022-10-17T21:09:37.656Z,102313.78
2022-10-17T21:12:05.359Z,102314.75
2022-10-17T21:14:33.427Z,102319.16
2022-10-17T21:17:04.665Z,102328.03
2022-10-17T21:19:32.885Z,102314.91
2022-10-17T21:22:00.141Z,102324.59
2022-10-17T21:24:27.663Z,102311.38
2022-10-17T21:26:57.830Z,102314.97
2022-10-17T21:29:25.315Z,102327.38
2022-10-17T21:31:53.067Z,102329.25
2022-10-17T21:34:27.787Z,102323.97
2022-10-17T21:36:56.043Z,102324.97
2022-10-17T21:39:24.857Z,102316.28
2022-10-17T21:41:53.659Z,102318.84
2022-10-17T21:44:26.721Z,102333.84
2022-10-17T21:46:56.081Z,102333.94
2022-10-17T21:49:25.878Z,102339.28
2022-10-17T21:51:54.851Z,102333.13
2022-10-17T21:54:23.607Z,102329.72
2022-10-17T21:56:51.923Z,102336.00
2022-10-17T21:59:19.258Z,102341.44
2022-10-17T22:01:47.596Z,102349.50
2022-10-17T22:04:19.339Z,102341.75
2022-10-17T22:06:51.323Z,102340.97
2022-10-17T22:09:25.963Z,102350.59
2022-10-17T22:11:56.857Z,102349.72
2022-10-17T22:14:27.193Z,102348.13
2022-10-17T22:16:55.400Z,102356.03
2022-10-17T22:19:27.191Z,102349.97
2022-10-17T22:21:55.612Z,102352.59
2022-10-17T22:24:23.753Z,102361.41
2022-10-17T22:26:52.231Z,102361.41
2022-10-17T22:29:19.828Z,102364.09
2022-10-17T22:31:50.321Z,102362.47
2022-10-17T22:34:18.894Z,102359.91
2022-10-17T22:36:48.736Z,102357.41
2022-10-17T22:39:18.280Z,102367.97
2022-10-17T22:41:45.475Z,102370.59
2022-10-17T22:44:12.808Z,102367.13
2022-10-17T22:46:39.929Z,102360.03
2022-10-17T22:49:07.102Z,102355.59
2022-10-17T22:51:34.303Z,102361.75
2022-10-17T22:54:01.585Z,102366.97
2022-10-17T22:56:28.754Z,102372.25
2022-10-17T22:58:55.942Z,102375.72
2022-10-17T23:01:25.703Z,102372.31
2022-10-17T23:03:53.638Z,102371.44
2022-10-17T23:06:21.958Z,102367.13
2022-10-17T23:08:49.787Z,102381.22
2022-10-17T23:11:18.236Z,102366.31
2022-10-17T23:13:45.465Z,102368.94
2022-10-17T23:16:12.764Z,102370.75
2022-10-17T23:18:40.338Z,102367.19
2022-10-17T23:21:08.350Z,102371.53
2022-10-17T23:23:36.861Z,102371.53
2022-10-17T23:26:14.323Z,102375.03
2022-10-17T23:28:43.244Z,102374.16
2022-10-17T23:31:20.795Z,102368.03
2022-10-17T23:33:50.208Z,102370.81
2022-10-17T23:36:20.923Z,102363.81
2022-10-17T23:38:49.074Z,102362.06
2022-10-17T23:41:17.609Z,102368.13
2022-10-17T23:43:45.190Z,102375.97
2022-10-17T23:46:12.845Z,102375.97
2022-10-17T23:48:41.729Z,102371.53
2022-10-17T23:51:10.763Z,102371.53
2022-10-17T23:53:39.581Z,102356.63
2022-10-17T23:56:09.108Z,102363.69
2022-10-17T23:58:37.868Z,102363.69
